Time;durP1;ratioP1;P1;durP2;ratioP2;P2;SDS_P1;SDS_P2;PMS_P1;PMS_P2;Temp;Humidity;BMP_temperature;BMP_pressure;BME280_temperature;BME280_humidity;BME280_pressure;Samples;Min_cycle;Max_cycle;Signal;HPM_P1;HPM_P2
2021/08/31 00:01:35;;;;;;;11.70;7.90;;;;;;;20.13;67.35;100112.02;117331;1184;21865;-58
2021/08/31 00:04:05;;;;;;;11.70;7.50;;;;;;;20.04;67.50;100114.30;117457;1184;21867;-58
2021/08/31 00:06:34;;;;;;;11.80;7.30;;;;;;;19.99;67.72;100119.20;117385;1186;23554;-65
2021/08/31 00:09:06;;;;;;;11.30;7.20;;;;;;;19.98;67.74;100122.80;117365;1184;22616;-58
2021/08/31 00:11:35;;;;;;;9.40;7.20;;;;;;;19.96;67.73;100125.57;117340;1184;23474;-58
2021/08/31 00:14:04;;;;;;;9.30;7.30;;;;;;;19.90;67.77;100126.07;117478;1185;23560;-58
2021/08/31 00:16:41;;;;;;;10.00;7.00;;;;;;;19.90;67.74;100124.50;117381;1182;23432;-58
2021/08/31 00:19:13;;;;;;;13.10;7.20;;;;;;;19.88;67.83;100130.63;117370;1182;23441;-58
2021/08/31 00:21:53;;;;;;;9.60;7.20;;;;;;;19.82;68.07;100130.95;117403;1185;23451;-58
2021/08/31 00:24:22;;;;;;;10.90;7.70;;;;;;;19.79;68.14;100137.15;117334;1186;23548;-58
2021/08/31 00:26:53;;;;;;;11.40;6.70;;;;;;;19.75;68.16;100144.66;117397;1185;21885;-65
2021/08/31 00:29:22;;;;;;;8.80;7.00;;;;;;;19.74;68.16;100153.06;117429;1185;21851;-58
2021/08/31 00:31:51;;;;;;;9.70;6.80;;;;;;;19.72;68.18;100155.86;117341;1185;22917;-65
2021/08/31 00:34:20;;;;;;;11.30;6.70;;;;;;;19.66;68.37;100158.30;117412;1185;23698;-64
2021/08/31 00:36:49;;;;;;;13.10;6.70;;;;;;;19.62;68.50;100159.96;117390;1185;23519;-58
2021/08/31 00:39:19;;;;;;;13.50;6.90;;;;;;;19.61;68.56;100161.26;117393;1182;21864;-64
2021/08/31 00:41:48;;;;;;;10.10;6.80;;;;;;;19.58;68.62;100166.41;117432;1182;23659;-61
2021/08/31 00:44:22;;;;;;;15.30;7.00;;;;;;;19.57;68.61;100164.12;117453;1185;22724;-64
2021/08/31 00:46:52;;;;;;;9.50;6.80;;;;;;;19.59;68.50;100161.73;117401;1180;21886;-65
2021/08/31 00:49:21;;;;;;;8.60;6.80;;;;;;;19.62;68.32;100155.69;117327;1186;23487;-64
2021/08/31 00:51:51;;;;;;;9.30;6.60;;;;;;;19.61;68.39;100156.83;117446;1182;22938;-58
2021/08/31 00:54:21;;;;;;;10.10;6.70;;;;;;;19.54;68.64;100156.67;117347;1185;21864;-64
2021/08/31 00:56:50;;;;;;;11.40;7.40;;;;;;;19.57;68.59;100152.56;117317;1186;22957;-64
2021/08/31 00:59:20;;;;;;;10.40;6.80;;;;;;;19.64;68.53;100154.37;117357;1184;21857;-64
2021/08/31 01:01:49;;;;;;;11.60;6.90;;;;;;;19.68;68.44;100153.39;117406;1180;22918;-64
2021/08/31 01:04:23;;;;;;;8.50;6.30;;;;;;;19.74;68.31;100155.58;117360;1182;21854;-58
2021/08/31 01:06:52;;;;;;;11.10;5.80;;;;;;;19.77;68.23;100158.09;117345;1185;21865;-65
2021/08/31 01:09:22;;;;;;;10.80;6.30;;;;;;;19.77;68.15;100157.93;117394;1186;23452;-58
2021/08/31 01:11:58;;;;;;;12.10;6.80;;;;;;;19.77;67.99;100157.21;117344;1182;23468;-58
2021/08/31 01:14:28;;;;;;;10.00;6.60;;;;;;;19.68;68.11;100156.10;117373;1182;21927;-58
2021/08/31 01:16:56;;;;;;;11.60;6.90;;;;;;;19.71;68.04;100156.09;117380;1185;23555;-58
2021/08/31 01:19:30;;;;;;;14.90;6.60;;;;;;;19.73;68.04;100157.04;117445;1185;23547;-60
2021/08/31 01:22:09;;;;;;;12.00;6.50;;;;;;;19.73;68.09;100159.74;117407;1185;22902;-64
2021/08/31 01:24:42;;;;;;;10.30;6.60;;;;;;;19.71;68.13;100161.80;117320;1185;21860;-58
2021/08/31 01:27:12;;;;;;;10.80;6.60;;;;;;;19.75;67.98;100162.11;117433;1181;22915;-58
2021/08/31 01:29:41;;;;;;;10.00;6.90;;;;;;;19.80;67.85;100163.13;117429;1185;23391;-64
2021/08/31 01:32:11;;;;;;;8.10;5.70;;;;;;;19.82;67.74;100165.66;117355;1185;23631;-62
2021/08/31 01:34:40;;;;;;;9.90;7.00;;;;;;;19.83;67.66;100166.17;117403;1184;22918;-63
2021/08/31 01:37:10;;;;;;;9.50;6.10;;;;;;;19.84;67.52;100166.07;117407;1185;23621;-64
2021/08/31 01:39:39;;;;;;;8.60;6.10;;;;;;;19.84;67.41;100166.63;117477;1182;21898;-63
2021/08/31 01:42:09;;;;;;;8.00;6.60;;;;;;;19.82;67.42;100166.23;117416;1182;21899;-63
2021/08/31 01:44:39;;;;;;;10.30;6.40;;;;;;;19.89;67.19;100167.80;117379;1185;24275;-58
2021/08/31 01:47:11;;;;;;;9.40;6.20;;;;;;;20.01;66.75;100164.30;117471;1184;23541;-63
2021/08/31 01:49:40;;;;;;;8.10;5.90;;;;;;;19.98;66.75;100172.15;117326;1182;23665;-58
2021/08/31 01:52:09;;;;;;;8.20;6.10;;;;;;;19.92;66.88;100174.94;117426;1185;24237;-64
2021/08/31 01:54:39;;;;;;;9.70;6.10;;;;;;;19.79;66.89;100175.07;117368;1186;23613;-63
2021/08/31 01:57:07;;;;;;;10.20;6.80;;;;;;;19.68;67.03;100175.29;117366;1185;21857;-58
2021/08/31 01:59:37;;;;;;;10.60;6.80;;;;;;;19.56;67.28;100172.74;117375;1185;23459;-64
2021/08/31 02:02:06;;;;;;;7.80;6.10;;;;;;;19.52;67.40;100170.46;117372;1184;24209;-64
2021/08/31 02:04:35;;;;;;;9.50;6.30;;;;;;;19.51;67.46;100173.02;117404;1182;23682;-63
2021/08/31 02:07:05;;;;;;;10.80;6.90;;;;;;;19.51;67.43;100171.59;117434;1185;21857;-64
2021/08/31 02:09:35;;;;;;;9.50;6.40;;;;;;;19.46;67.60;100173.04;117439;1185;23516;-58
2021/08/31 02:12:24;;;;;;;10.20;6.40;;;;;;;19.47;67.58;100171.93;117412;1182;23589;-58
2021/08/31 02:14:53;;;;;;;9.30;6.60;;;;;;;19.51;67.42;100170.73;117390;1182;22939;-58
2021/08/31 02:17:23;;;;;;;10.20;6.50;;;;;;;19.50;67.40;100172.17;117377;1185;24225;-58
2021/08/31 02:19:54;;;;;;;7.50;6.30;;;;;;;19.49;67.33;100171.30;117388;1184;21864;-62
2021/08/31 02:22:24;;;;;;;10.10;6.50;;;;;;;19.53;67.28;100174.30;117391;1185;23589;-58
2021/08/31 02:24:53;;;;;;;9.40;6.50;;;;;;;19.54;67.14;100172.47;117434;1184;21857;-64
2021/08/31 02:27:22;;;;;;;8.30;6.00;;;;;;;19.55;67.04;100175.46;117411;1185;23493;-63
2021/08/31 02:29:52;;;;;;;9.20;6.30;;;;;;;19.53;66.94;100179.48;117315;1187;21864;-64
2021/08/31 02:32:21;;;;;;;10.40;6.10;;;;;;;19.48;66.90;100184.18;117328;1185;23610;-58
2021/08/31 02:34:51;;;;;;;9.20;6.30;;;;;;;19.37;66.96;100187.61;117394;1184;23433;-60
2021/08/31 02:37:21;;;;;;;11.10;6.90;;;;;;;19.23;67.17;100187.07;117360;1182;21858;-63
2021/08/31 02:39:50;;;;;;;10.90;7.30;;;;;;;19.14;67.33;100191.26;117299;1184;22096;-63
2021/08/31 02:42:19;;;;;;;10.80;7.00;;;;;;;19.10;67.46;100195.77;117341;1185;22922;-58
2021/08/31 02:44:49;;;;;;;10.80;7.20;;;;;;;19.03;67.63;100199.10;117343;1184;23735;-62
2021/08/31 02:47:19;;;;;;;12.20;7.00;;;;;;;19.02;67.72;100201.09;117316;1186;21857;-58
2021/08/31 02:49:48;;;;;;;10.20;6.80;;;;;;;19.03;67.79;100202.84;117339;1181;23624;-62
2021/08/31 02:52:18;;;;;;;9.60;6.70;;;;;;;19.02;67.72;100202.35;117311;1186;22919;-57
2021/08/31 02:54:47;;;;;;;12.20;7.60;;;;;;;18.99;67.81;100202.71;117399;1186;23526;-62
2021/08/31 02:57:17;;;;;;;10.00;7.40;;;;;;;18.96;67.86;100203.38;117376;1186;22724;-58
2021/08/31 02:59:46;;;;;;;11.60;7.40;;;;;;;18.97;67.82;100201.55;117385;1186;21965;-58
2021/08/31 03:02:16;;;;;;;14.50;7.60;;;;;;;18.98;67.81;100202.05;117331;1186;23538;-58
2021/08/31 03:04:47;;;;;;;10.50;7.40;;;;;;;19.01;67.70;100206.33;117317;1182;23443;-58
2021/08/31 03:07:17;;;;;;;13.60;7.30;;;;;;;19.04;67.48;100204.91;117244;1186;21847;-59
2021/08/31 03:09:46;;;;;;;9.60;7.00;;;;;;;19.02;67.38;100202.54;117357;1185;23439;-61
2021/08/31 03:12:15;;;;;;;15.00;7.70;;;;;;;19.00;67.38;100203.33;117271;1186;21883;-58
2021/08/31 03:15:05;;;;;;;12.60;7.20;;;;;;;19.04;67.27;100204.59;117302;1184;23687;-62
2021/08/31 03:17:34;;;;;;;9.90;6.80;;;;;;;19.02;67.09;100203.22;117353;1182;23582;-59
2021/08/31 03:20:05;;;;;;;13.80;7.10;;;;;;;19.00;67.20;100207.43;117276;1187;21918;-62
2021/08/31 03:22:34;;;;;;;11.40;6.80;;;;;;;19.02;67.04;100203.77;117279;1182;22992;-58
2021/08/31 03:25:04;;;;;;;11.30;6.60;;;;;;;19.01;67.16;100205.59;117347;1181;22922;-58
2021/08/31 03:27:36;;;;;;;15.90;7.90;;;;;;;19.05;66.99;100207.01;117323;1183;23623;-62
2021/08/31 03:30:06;;;;;;;20.90;8.30;;;;;;;19.05;66.97;100206.31;117224;1185;23591;-58
2021/08/31 03:32:38;;;;;;;16.80;8.40;;;;;;;18.97;67.16;100208.83;117319;1185;22797;-62
2021/08/31 03:35:07;;;;;;;11.30;7.50;;;;;;;18.92;67.33;100207.10;117297;1186;21858;-61
2021/08/31 03:37:37;;;;;;;13.00;7.90;;;;;;;18.91;67.43;100209.47;117339;1186;21957;-58
2021/08/31 03:40:06;;;;;;;17.50;7.90;;;;;;;18.92;67.45;100208.71;117272;1183;22186;-58
2021/08/31 03:42:36;;;;;;;18.00;9.10;;;;;;;18.90;67.45;100214.30;117329;1186;23625;-61
2021/08/31 03:45:06;;;;;;;15.40;7.60;;;;;;;18.93;67.56;100211.88;117371;1186;22642;-62
2021/08/31 03:47:35;;;;;;;13.50;7.50;;;;;;;19.00;67.55;100214.91;117361;1185;21858;-58
2021/08/31 03:50:05;;;;;;;17.00;8.00;;;;;;;19.07;67.50;100222.77;117316;1185;22908;-58
2021/08/31 03:52:35;;;;;;;15.70;7.90;;;;;;;19.09;67.42;100224.76;117397;1185;21863;-62
2021/08/31 03:55:04;;;;;;;16.00;7.70;;;;;;;19.12;67.42;100234.42;117415;1185;21895;-58
2021/08/31 03:57:34;;;;;;;24.20;9.40;;;;;;;19.13;67.59;100235.59;117324;1185;22919;-59
2021/08/31 04:00:04;;;;;;;15.50;9.30;;;;;;;19.08;67.91;100233.70;117352;1182;21853;-59
2021/08/31 04:02:33;;;;;;;13.80;8.40;;;;;;;19.18;67.89;100235.91;117403;1185;22378;-58
2021/08/31 04:05:03;;;;;;;18.60;8.60;;;;;;;19.26;67.84;100235.09;117365;1185;22916;-61
2021/08/31 04:07:32;;;;;;;16.30;8.70;;;;;;;19.33;67.93;100233.71;117369;1183;22915;-61
2021/08/31 04:10:02;;;;;;;21.00;8.80;;;;;;;19.40;67.92;100231.95;117332;1186;21858;-62
2021/08/31 04:12:51;;;;;;;20.50;8.30;;;;;;;19.49;67.93;100231.48;117415;1184;21855;-58
2021/08/31 04:15:40;;;;;;;16.00;7.90;;;;;;;19.58;68.03;100231.55;117371;1183;23560;-61
2021/08/31 04:18:10;;;;;;;20.00;8.40;;;;;;;19.60;68.26;100231.27;117360;1184;21845;-62
2021/08/31 04:20:39;;;;;;;14.80;8.20;;;;;;;19.68;68.43;100230.69;117476;1182;21926;-62
2021/08/31 04:23:09;;;;;;;18.90;8.60;;;;;;;19.76;68.37;100227.77;117349;1186;21867;-62
2021/08/31 04:25:40;;;;;;;18.00;8.80;;;;;;;19.85;68.39;100228.69;117385;1185;21852;-59
2021/08/31 04:28:09;;;;;;;16.40;8.80;;;;;;;19.94;68.41;100227.72;117394;1184;22953;-61
2021/08/31 04:30:46;;;;;;;12.30;8.20;;;;;;;20.01;68.76;100229.65;117377;1184;23433;-59
2021/08/31 04:33:16;;;;;;;14.80;8.10;;;;;;;20.12;68.58;100230.84;117403;1185;24171;-62
2021/08/31 04:35:46;;;;;;;15.40;8.10;;;;;;;20.21;68.76;100232.83;117429;1183;22918;-58
2021/08/31 04:38:16;;;;;;;;;;;;;;;20.33;68.87;100237.52;117460;1184;21845;-62
2021/08/31 04:40:45;;;;;;;15.00;7.90;;;;;;;20.44;68.68;100229.79;117404;1182;24289;-58
2021/08/31 04:43:15;;;;;;;13.30;7.80;;;;;;;20.56;68.63;100238.24;117307;1185;23465;-63
2021/08/31 04:45:44;;;;;;;15.40;9.10;;;;;;;20.64;68.65;100239.41;117385;1185;23483;-61
2021/08/31 04:48:13;;;;;;;15.90;8.50;;;;;;;20.70;68.81;100243.13;117439;1184;21863;-58
2021/08/31 04:50:42;;;;;;;14.80;8.30;;;;;;;20.66;69.29;100240.17;117407;1185;23450;-58
2021/08/31 04:53:11;;;;;;;17.60;9.70;;;;;;;20.78;69.24;100242.93;117434;1185;23439;-63
2021/08/31 04:55:39;;;;;;;16.70;9.40;;;;;;;20.80;69.51;100243.00;117354;1184;23469;-62
2021/08/31 04:58:07;;;;;;;18.60;10.10;;;;;;;20.89;69.58;100245.84;117442;1185;23545;-63
2021/08/31 05:00:36;;;;;;;13.40;8.80;;;;;;;20.99;69.56;100246.91;117370;1185;24311;-64
2021/08/31 05:03:04;;;;;;;17.90;9.80;;;;;;;21.11;69.52;100245.66;117463;1185;22434;-62
2021/08/31 05:05:32;;;;;;;18.00;9.60;;;;;;;21.22;69.65;100248.77;117510;1185;23563;-63
2021/08/31 05:08:01;;;;;;;17.20;9.40;;;;;;;21.35;69.82;100247.28;117336;1185;21865;-62
2021/08/31 05:10:49;;;;;;;14.90;9.10;;;;;;;21.54;69.71;100246.91;117347;1185;22918;-63
2021/08/31 05:13:17;;;;;;;12.80;9.10;;;;;;;21.68;69.60;100248.73;117267;1186;21896;-59
2021/08/31 05:16:01;;;;;;;12.80;8.60;;;;;;;21.79;69.49;100249.70;117350;1185;23432;-59
2021/08/31 05:18:31;;;;;;;13.40;7.50;;;;;;;21.89;69.33;100243.73;117552;1184;21856;-63
2021/08/31 05:21:00;;;;;;;10.20;6.60;;;;;;;21.99;69.48;100237.58;117375;1185;21862;-64
2021/08/31 05:23:28;;;;;;;9.30;6.00;;;;;;;22.10;69.19;100238.48;117352;1184;23464;-63
2021/08/31 05:25:56;;;;;;;10.70;6.60;;;;;;;22.22;68.81;100242.91;117246;1185;22160;-63
2021/08/31 05:28:24;;;;;;;9.10;6.10;;;;;;;22.33;69.00;100243.67;117473;1178;21852;-59
2021/08/31 05:30:53;;;;;;;8.10;6.00;;;;;;;22.44;68.90;100245.46;117351;1184;21864;-64
2021/08/31 05:33:21;;;;;;;7.50;4.80;;;;;;;22.59;68.80;100242.73;117381;1185;21941;-59
2021/08/31 05:35:49;;;;;;;7.10;5.10;;;;;;;22.75;68.43;100241.33;117323;1185;23569;-65
2021/08/31 05:38:17;;;;;;;10.20;7.90;;;;;;;22.90;68.59;100242.36;117344;1182;22986;-65
2021/08/31 05:40:46;;;;;;;7.60;5.80;;;;;;;23.10;68.53;100246.61;117489;1185;23545;-65
2021/08/31 05:43:15;;;;;;;8.10;5.10;;;;;;;23.28;68.10;100244.29;117388;1183;24151;-59
2021/08/31 05:45:44;;;;;;;7.60;5.60;;;;;;;23.45;68.20;100244.45;117354;1183;21858;-59
2021/08/31 05:48:12;;;;;;;10.30;5.70;;;;;;;23.75;68.22;100242.91;117395;1185;21854;-59
2021/08/31 05:50:40;;;;;;;7.10;4.80;;;;;;;23.98;67.89;100239.38;117372;1188;21878;-60
2021/08/31 05:53:08;;;;;;;9.60;4.00;;;;;;;24.07;67.56;100242.33;117272;1186;21856;-60
2021/08/31 05:55:37;;;;;;;10.30;4.90;;;;;;;24.22;67.31;100240.69;117482;1184;22840;-59
2021/08/31 05:58:08;;;;;;;9.20;5.20;;;;;;;24.41;67.00;100241.84;117353;1182;23448;-59
2021/08/31 06:00:37;;;;;;;10.50;5.10;;;;;;;24.60;67.16;100244.08;117394;1185;23455;-61
2021/08/31 06:03:05;;;;;;;12.80;5.80;;;;;;;24.81;67.20;100245.63;117398;1182;21958;-66
2021/08/31 06:05:36;;;;;;;13.80;5.30;;;;;;;25.00;66.65;100241.91;117417;1184;21862;-66
2021/08/31 06:08:05;;;;;;;10.20;4.00;;;;;;;25.23;66.11;100247.85;117429;1183;23616;-65
2021/08/31 06:10:34;;;;;;;8.30;3.80;;;;;;;25.51;65.46;100248.84;117448;1185;23601;-59
2021/08/31 06:13:04;;;;;;;5.30;4.00;;;;;;;25.61;64.31;100250.75;117364;1185;21854;-65
2021/08/31 06:15:33;;;;;;;6.70;4.20;;;;;;;25.61;64.34;100249.53;117454;1182;23443;-65
2021/08/31 06:18:01;;;;;;;4.90;3.70;;;;;;;25.73;64.61;100249.14;117345;1183;24200;-64
2021/08/31 06:20:32;;;;;;;4.60;3.30;;;;;;;25.88;64.08;100251.40;117392;1185;23509;-65
2021/08/31 06:23:00;;;;;;;3.90;3.10;;;;;;;26.02;64.29;100248.68;117369;1185;23570;-64
2021/08/31 06:25:29;;;;;;;5.30;3.20;;;;;;;26.16;63.57;100250.63;117451;1184;23469;-65
2021/08/31 06:27:57;;;;;;;5.30;3.80;;;;;;;26.22;62.91;100250.11;117445;1185;21853;-64
2021/08/31 06:30:26;;;;;;;7.30;3.90;;;;;;;26.29;63.49;100253.17;117414;1181;24718;-59
2021/08/31 06:32:54;;;;;;;7.00;4.00;;;;;;;26.48;62.93;100255.44;117426;1182;23669;-65
2021/08/31 06:35:22;;;;;;;5.70;4.00;;;;;;;26.66;63.08;100260.61;117502;1186;21854;-60
2021/08/31 06:37:51;;;;;;;4.90;4.00;;;;;;;26.86;62.70;100261.70;117314;1182;22950;-59
2021/08/31 06:40:20;;;;;;;9.80;5.20;;;;;;;27.04;62.65;100261.89;117318;1184;24707;-65
2021/08/31 06:42:48;;;;;;;7.90;4.90;;;;;;;27.35;62.28;100261.92;117325;1184;23813;-67
2021/08/31 06:45:17;;;;;;;7.60;4.20;;;;;;;27.70;61.51;100264.62;117410;1185;21857;-66
2021/08/31 06:47:45;;;;;;;12.30;4.40;;;;;;;27.77;61.33;100267.40;117247;1183;23464;-67
2021/08/31 06:50:16;;;;;;;6.00;3.70;;;;;;;27.90;61.23;100270.62;117381;1187;24166;-67
2021/08/31 06:52:45;;;;;;;5.00;3.50;;;;;;;28.04;61.35;100275.17;117372;1184;22638;-59
2021/08/31 06:55:19;;;;;;;7.20;3.60;;;;;;;28.20;60.67;100273.27;117348;1176;23442;-59
2021/08/31 06:57:47;;;;;;;5.20;4.10;;;;;;;28.35;60.83;100269.81;117336;1182;23445;-59
2021/08/31 07:00:16;;;;;;;5.10;3.50;;;;;;;28.50;59.13;100270.15;117361;1185;24162;-66
2021/08/31 07:02:44;;;;;;;8.40;3.90;;;;;;;28.55;59.30;100272.77;117388;1185;21857;-65
2021/08/31 07:05:13;;;;;;;7.50;4.10;;;;;;;28.50;58.17;100276.44;117345;1183;23641;-67
2021/08/31 07:07:41;;;;;;;6.70;4.00;;;;;;;28.43;58.90;100274.86;117377;1185;21917;-67
2021/08/31 07:10:10;;;;;;;16.40;5.50;;;;;;;28.48;59.01;100276.04;117399;1184;21901;-60
2021/08/31 07:12:38;;;;;;;6.40;4.20;;;;;;;28.56;58.90;100277.48;117364;1182;21849;-67
2021/08/31 07:15:09;;;;;;;6.10;4.10;;;;;;;28.91;59.25;100274.88;117373;1185;21856;-62
2021/08/31 07:17:37;;;;;;;6.90;4.30;;;;;;;29.07;58.37;100277.08;117346;1184;23570;-60
2021/08/31 07:20:06;;;;;;;13.00;5.00;;;;;;;29.17;58.62;100282.44;117358;1184;22725;-67
2021/08/31 07:22:35;;;;;;;8.40;4.10;;;;;;;29.33;58.14;100281.05;117322;1184;23446;-67
2021/08/31 07:25:03;;;;;;;4.80;3.90;;;;;;;29.44;57.86;100284.77;117334;1186;21845;-67
2021/08/31 07:27:32;;;;;;;7.80;4.00;;;;;;;29.46;55.79;100280.57;117392;1185;22256;-67
2021/08/31 07:30:00;;;;;;;8.90;4.60;;;;;;;29.39;55.93;100281.20;117384;1182;23443;-67
2021/08/31 07:32:28;;;;;;;9.40;5.10;;;;;;;29.37;57.39;100280.83;117389;1182;23465;-67
2021/08/31 07:34:56;;;;;;;9.00;4.60;;;;;;;29.43;55.98;100285.20;117349;1185;21855;-67
2021/08/31 07:37:24;;;;;;;7.80;3.90;;;;;;;29.52;56.99;100282.19;117364;1181;24132;-60
2021/08/31 07:39:53;;;;;;;7.50;3.90;;;;;;;29.71;56.07;100281.33;117371;1184;21869;-66
2021/08/31 07:42:21;;;;;;;27.30;6.10;;;;;;;29.81;55.71;100284.16;117340;1185;21882;-66
2021/08/31 07:44:50;;;;;;;7.50;4.40;;;;;;;29.81;54.09;100281.02;117371;1186;23474;-60
2021/08/31 07:47:18;;;;;;;8.40;4.50;;;;;;;29.84;55.72;100277.52;117369;1182;23452;-67
2021/08/31 07:50:02;;;;;;;10.00;4.50;;;;;;;30.04;55.16;100275.81;117353;1185;23479;-67
2021/08/31 07:52:31;;;;;;;8.20;4.40;;;;;;;30.09;53.40;100276.41;117366;1185;22935;-60
2021/08/31 07:55:00;;;;;;;6.50;4.90;;;;;;;30.16;54.53;100274.72;117364;1185;23464;-60
2021/08/31 07:57:28;;;;;;;7.50;4.60;;;;;;;30.08;51.80;100270.98;117374;1184;21858;-66
2021/08/31 07:59:57;;;;;;;6.70;4.00;;;;;;;29.93;52.84;100269.80;117319;1183;23452;-59
2021/08/31 08:02:25;;;;;;;6.00;4.30;;;;;;;30.04;53.29;100273.35;117374;1184;23074;-60
2021/08/31 08:04:58;;;;;;;7.70;4.60;;;;;;;30.13;55.05;100278.29;117427;1185;23469;-60
2021/08/31 08:07:27;;;;;;;7.70;4.20;;;;;;;30.48;55.85;100277.21;117416;1185;23429;-60
2021/08/31 08:09:55;;;;;;;5.60;4.50;;;;;;;30.76;55.85;100273.79;117438;1183;23439;-60
2021/08/31 08:12:23;;;;;;;6.40;4.20;;;;;;;30.91;56.12;100270.23;117425;1185;21882;-60
2021/08/31 08:14:55;;;;;;;7.30;4.40;;;;;;;31.11;55.98;100266.68;117412;1184;23494;-67
2021/08/31 08:17:24;;;;;;;10.60;4.10;;;;;;;31.31;55.76;100270.06;117384;1184;22813;-68
2021/08/31 08:19:52;;;;;;;5.40;4.00;;;;;;;31.42;57.49;100268.61;117510;1178;21854;-67
2021/08/31 08:22:20;;;;;;;4.50;3.40;;;;;;;31.70;59.01;100267.95;117410;1185;23534;-60
2021/08/31 08:24:49;;;;;;;4.50;3.50;;;;;;;31.58;58.70;100269.41;117376;1185;21827;-67
2021/08/31 08:27:17;;;;;;;4.40;3.30;;;;;;;31.47;56.88;100269.45;117419;1184;21852;-67
2021/08/31 08:29:45;;;;;;;7.40;3.30;;;;;;;31.52;56.49;100266.75;117374;1185;23079;-60
2021/08/31 08:32:13;;;;;;;7.90;3.70;;;;;;;31.72;56.33;100262.48;117326;1185;21858;-60
2021/08/31 08:34:41;;;;;;;6.40;3.30;;;;;;;31.77;54.56;100260.15;117391;1185;23044;-67
2021/08/31 08:37:11;;;;;;;7.00;3.80;;;;;;;31.67;55.87;100259.68;117457;1183;23443;-67
2021/08/31 08:39:39;;;;;;;7.00;3.40;;;;;;;31.81;54.02;100264.13;117348;1184;21864;-66
2021/08/31 08:42:09;;;;;;;5.70;3.60;;;;;;;31.80;55.46;100265.71;117406;1185;21899;-60
2021/08/31 08:44:37;;;;;;;5.50;3.40;;;;;;;31.92;57.49;100259.92;117385;1183;22005;-66
2021/08/31 08:47:05;;;;;;;5.50;3.40;;;;;;;31.97;56.66;100255.02;117359;1184;23449;-61
2021/08/31 08:49:34;;;;;;;107.00;11.40;;;;;;;31.91;54.27;100258.35;117466;1183;22989;-67
2021/08/31 08:52:03;;;;;;;6.50;4.50;;;;;;;31.74;54.18;100257.94;117389;1183;21857;-60
2021/08/31 08:54:31;;;;;;;5.90;3.60;;;;;;;31.60;54.57;100255.73;117357;1185;21859;-60
2021/08/31 08:57:00;;;;;;;6.60;4.10;;;;;;;31.47;54.19;100251.80;117425;1185;23454;-60
2021/08/31 08:59:29;;;;;;;9.70;5.60;;;;;;;31.36;53.04;100252.52;117357;1184;23449;-67
2021/08/31 09:01:57;;;;;;;6.80;5.30;;;;;;;31.22;56.19;100252.67;117405;1185;21891;-59
2021/08/31 09:05:02;;;;;;;6.40;4.00;;;;;;;31.32;57.32;100251.20;117453;1185;22915;-67
2021/08/31 09:07:30;;;;;;;4.50;3.10;;;;;;;31.48;60.37;100247.86;117054;1179;21858;-60
2021/08/31 09:10:19;;;;;;;7.40;3.90;;;;;;;31.75;60.09;100243.35;117356;1185;22919;-60
2021/08/31 09:13:00;;;;;;;13.20;5.90;;;;;;;32.00;56.96;100249.07;117291;1183;23443;-60
2021/08/31 09:15:31;;;;;;;6.40;4.50;;;;;;;32.09;56.80;100247.19;117175;1184;21871;-59
2021/08/31 09:18:10;;;;;;;8.10;4.20;;;;;;;31.95;61.04;100244.16;117401;1185;21865;-60
2021/08/31 09:20:46;;;;;;;6.60;3.10;;;;;;;31.98;60.58;100244.39;117360;1184;21857;-66
2021/08/31 09:23:23;;;;;;;4.40;3.00;;;;;;;32.20;62.54;100240.23;117346;1184;23440;-67
2021/08/31 09:26:18;;;;;;;9.70;3.40;;;;;;;32.53;61.44;100237.67;117417;1185;23443;-69
2021/08/31 09:28:47;;;;;;;6.40;3.80;;;;;;;32.79;57.59;100243.27;117420;1185;21848;-66
2021/08/31 09:31:19;;;;;;;4.80;4.10;;;;;;;32.81;58.55;100240.64;117394;1178;21845;-60
2021/08/31 09:33:51;;;;;;;5.90;3.20;;;;;;;32.89;61.52;100240.16;117374;1186;22960;-60
2021/08/31 09:36:24;;;;;;;6.60;3.90;;;;;;;33.10;59.71;100236.63;117442;1185;21864;-61
2021/08/31 09:38:57;;;;;;;6.30;3.50;;;;;;;33.01;57.41;100233.84;117437;1185;23823;-60
2021/08/31 09:41:29;;;;;;;5.40;2.70;;;;;;;32.92;59.12;100231.52;117381;1185;21864;-60
2021/08/31 09:44:04;;;;;;;6.70;3.90;;;;;;;33.00;57.95;100229.13;117390;1183;23442;-68
2021/08/31 09:46:49;;;;;;;5.60;3.60;;;;;;;32.99;57.00;100228.76;117423;1184;21856;-61
2021/08/31 09:49:33;;;;;;;5.30;3.10;;;;;;;33.00;58.81;100230.25;117355;1184;21854;-62
2021/08/31 09:52:11;;;;;;;5.00;3.30;;;;;;;33.15;57.69;100227.86;117377;1185;21908;-60
2021/08/31 09:54:45;;;;;;;7.60;3.20;;;;;;;33.32;56.73;100225.73;117438;1184;21855;-68
2021/08/31 09:57:35;;;;;;;6.00;2.70;;;;;;;33.40;53.92;100226.81;117336;1185;21845;-67
2021/08/31 10:00:12;;;;;;;7.90;2.00;;;;;;;33.23;53.52;100221.86;117331;1186;23466;-61
2021/08/31 10:02:43;;;;;;;6.60;2.40;;;;;;;33.31;54.54;100221.04;117406;1183;22083;-61
2021/08/31 10:05:11;;;;;;;4.00;2.30;;;;;;;33.30;55.73;100222.65;117409;1187;22166;-63
2021/08/31 10:07:41;;;;;;;4.10;2.30;;;;;;;33.39;55.82;100217.10;117397;1185;21878;-60
2021/08/31 10:10:10;;;;;;;4.70;1.80;;;;;;;33.40;53.16;100214.14;117382;1185;21837;-69
2021/08/31 10:12:38;;;;;;;5.50;2.30;;;;;;;33.11;50.99;100210.35;117438;1185;21859;-68
2021/08/31 10:15:26;;;;;;;7.70;2.30;;;;;;;32.93;50.46;100207.08;117116;1187;22899;-67
2021/08/31 10:17:54;;;;;;;5.60;1.90;;;;;;;32.69;48.99;100213.98;117355;1182;24144;-60
2021/08/31 10:20:26;;;;;;;6.00;2.20;;;;;;;32.55;52.42;100209.73;117359;1185;23567;-67
2021/08/31 10:23:14;;;;;;;4.70;2.40;;;;;;;32.63;51.06;100205.73;117322;1184;24168;-69
2021/08/31 10:25:43;;;;;;;8.20;3.40;;;;;;;32.59;51.50;100208.41;117355;1182;23450;-69
2021/08/31 10:28:26;;;;;;;5.60;3.70;;;;;;;32.39;49.33;100206.00;117361;1185;23005;-68
2021/08/31 10:30:57;;;;;;;9.10;4.60;;;;;;;32.05;51.86;100207.25;117418;1184;21859;-69
2021/08/31 10:33:30;;;;;;;5.10;3.60;;;;;;;31.89;53.47;100202.99;117689;1185;23462;-68
2021/08/31 10:36:01;;;;;;;7.50;3.20;;;;;;;32.02;54.73;100202.61;117419;1185;23465;-60
2021/08/31 10:38:42;;;;;;;5.50;2.40;;;;;;;32.34;52.00;100200.82;117461;1182;23797;-69
2021/08/31 10:41:30;;;;;;;5.60;2.30;;;;;;;32.50;49.85;100205.70;117371;1184;21857;-60
2021/08/31 10:43:58;;;;;;;9.40;3.60;;;;;;;32.61;52.94;100207.09;117427;1185;21859;-61
2021/08/31 10:47:02;;;;;;;4.70;2.90;;;;;;;32.94;53.51;100204.04;117251;1186;23469;-60
2021/08/31 10:49:55;;;;;;;4.10;2.70;;;;;;;33.22;52.67;100198.98;117240;1185;21914;-68
2021/08/31 10:52:36;;;;;;;4.00;2.70;;;;;;;33.39;51.66;100198.37;117340;1182;23444;-67
2021/08/31 10:55:27;;;;;;;3.70;2.20;;;;;;;33.51;51.28;100196.11;117427;1186;22936;-68
2021/08/31 10:58:01;;;;;;;5.90;2.10;;;;;;;33.76;49.90;100194.41;117279;1185;23462;-60
2021/08/31 11:00:29;;;;;;;8.10;3.60;;;;;;;33.82;50.06;100190.09;117369;1185;21858;-69
2021/08/31 11:02:59;;;;;;;4.10;2.30;;;;;;;33.89;48.74;100188.20;117353;1181;24226;-68
2021/08/31 11:05:29;;;;;;;7.70;3.60;;;;;;;33.86;50.05;100186.94;117435;1183;23544;-68
2021/08/31 11:07:59;;;;;;;7.30;3.20;;;;;;;33.78;48.38;100190.34;117375;1182;21847;-60
2021/08/31 11:10:34;;;;;;;5.00;2.60;;;;;;;33.82;50.70;100191.77;117388;1186;21856;-69
2021/08/31 11:13:08;;;;;;;5.80;2.70;;;;;;;34.09;50.91;100184.27;117378;1182;21856;-69
2021/08/31 11:15:37;;;;;;;4.60;3.00;;;;;;;34.35;50.32;100187.45;117368;1185;21858;-60
2021/08/31 11:18:09;;;;;;;5.70;3.50;;;;;;;34.43;48.93;100183.70;117234;1184;21857;-69
2021/08/31 11:20:38;;;;;;;5.20;3.70;;;;;;;34.37;47.22;100192.40;117434;1185;21848;-60
2021/08/31 11:23:22;;;;;;;7.30;5.00;;;;;;;34.23;47.91;100191.14;117312;1185;21846;-68
2021/08/31 11:26:01;;;;;;;7.00;3.80;;;;;;;34.11;46.65;100190.58;117321;1182;23446;-60
2021/08/31 11:28:30;;;;;;;5.70;3.60;;;;;;;34.03;48.32;100189.02;117332;1185;23468;-68
2021/08/31 11:31:04;;;;;;;7.40;3.20;;;;;;;33.98;48.43;100187.58;117354;1186;21860;-60
2021/08/31 11:33:42;;;;;;;5.20;2.30;;;;;;;34.07;48.94;100179.58;117295;1183;23573;-61